Startpagina
METAR-TAF:

METAR-TAF

Vliegvelden :

Sfax, Tunesië

breedte: 34-43N, lengte: 010-41E, hoogte: 21 m

Actueel weer

Dit bericht is 29 minuten geleden gemaakt, om 01:00 UTC
Wind 5 kt uit het westen
Temperatuur 9°C
Vochtigheid 76%
Druk 1022 hPa
Zicht 10 km of meer
Weinig wolken op 2300 ft

METAR: DTTX 290100Z 27005KT 9999 FEW023 09/05 Q1022

Tijdstip: 02:29 (01:29 UTC)

Verwachting

Dit bericht is 2 uur en het 29 minuten geleden gemaakt, om 23:00 UTC
Verwachting geldig van 29 om 00 UTC tot 29 om 24 UTC
Wind 3 kt uit variabele richting
Zicht 10 km of meer
Weinig wolken op 2300 ft
Kans 30% :
Tijdelijke
van 29 om 00 UTC tot 29 om 07 UTC
Zicht: 3000 m
nevel

TAF: DTTX 282300Z 2900/2924 VRB03KT 9999 FEW023 PROB30 TEMPO 2900/2907 3000 BR

Waarnemingen en weersverwachtingen van meer dan 4000 vliegvelden (METAR en TAF).

De beschikbare stations zijn de gele en rode punten op de kaart.

Ga met uw muis naar het station om de naam te zien.

Klik dan om waarnemingen en weersverwachtingen te zien.

kaart wijzigen: klik op de groene knoppen met een zwart kruis om in te zoomen, op de groene knop met een streepje om uit te zoomen of op de groene pijlen voor aangrenzende kaarten.


METAR-TAF: